Fort Wayne, IN

6:27 AM EDT on October 22, 2014 (GMT -0400)
Hillegas Road, Ft.Wayne, IN | Change Station
CLOSE
Current Station
Personal Weather Station
Location: Fort Wayne, IN
Elevation: 823 ft
Nearby Weather Stations

Elev 823 ft 41.10 °N, 85.19 °W | Updated 10 minutes ago

Partly Cloudy
Partly Cloudy
38.5 °F
Feels Like 38 °F
N
2.7
Wind Variable Wind from ESE

Today
High -- | Low -- °F
--% Chance of Precip.
Yesterday
High -- | Low -- °F
Precip. -- in
7:59 AM 6:49 PM
Waning Crescent, 2% visible
Pressure 30.29 in
Visibility 10.0 miles
Clouds Mostly Cloudy 1800 ft
Mostly Cloudy 3100 ft
Windchill 38 °F
Dew Point 36 °F
Humidity 90%
Rainfall 0.00 in
Snow Depth Not available.
UV 0 out of 12
Pollen 1.10 out of 12
PM2.5 Good
Flu Activity Sporadic
SPECI KFWA 221010Z 34005KT 10SM BKN018 BKN031 04/02 A3029 RMK AO2 T00390022

More Conditions Fewer Conditions

Pressure 30.29 in
Visibility 10.0 miles
Clouds Mostly Cloudy 1800 ft
Mostly Cloudy 3100 ft
Windchill 38 °F
Dew Point 36 °F
Humidity 90%
Rainfall 0.00 in
Snow Depth Not available.
UV 0 out of 12
Pollen 1.10 out of 12
PM2.5 Good
Flu Activity Sporadic
SPECI KFWA 221010Z 34005KT 10SM BKN018 BKN031 04/02 A3029 RMK AO2 T00390022

More Conditions Fewer Conditions

10-Day Weather Forecast

Almanac

Astronomy

Oct. 22, 2014 Rise Set
Actual Time 7:59 AM EDT 6:49 PM EDT
Civil Twilight 7:31 AM EDT 7:17 PM EDT
Nautical Twilight 6:59 AM EDT 7:49 PM EDT
Astronomical Twilight 6:27 AM EDT 8:21 PM EDT
Moon 6:40 AM EDT 6:16 PM EDT
Length of Visible Light 11h 45m
Length of Day
10h 49m
Tomorrow will be 2m 35s shorter.
Waning Crescent, 2% of the Moon is Illuminated
Today
Waning Crescent
Oct 23
New
Oct 30
First Quarter
Nov 6
Full
Nov 14
Last Quarter

Today's Extremes

State Highs State Lows

Community

WunderPhotos

Upload Photos

1,763,902 photos uploaded!

Nearby

Air Quality

  Air Quality AQ Index Pollutant
Yesterday Good
PM2.5
Current Good
PM2.5
Wednesday Good
OZONE
Wednesday Good
PM2.5
Thursday Moderate
PM2.5
Thursday Good
OZONE
Friday Moderate
PM2.5
Friday Good
OZONE

Snow Depth

Station Depth Elevation
No new snow has been reported.

Earthquake Activity

City Distance Mag. Time & Date
No recent earthquake activity has been reported nearby.
Minimum magnitude displayed is 2.5.

Coastal Water Temperatures

Place Temperature
No Stations Reporting

Nearby Weather Stations